Time,TemperatureF,DewpointF,PressureIn,WindDirection,WindDirectionDegrees,WindSpeedMPH,WindSpeedGustMPH,Humidity,HourlyPrecipIn,Conditions,Clouds,dailyrainin,SoftwareType,DateUTC
2013-11-25 00:00:00,67.3,59.5,30.09,NNE,22,0.4,3.4,76,0.00,,CLR,0.00,VWS V14.01,2013-11-25 05:00:00,
2013-11-25 00:02:00,67.3,59.5,30.09,NNE,22,0.4,3.4,76,0.00,,CLR,0.00,VWS V14.01,2013-11-25 05:02:00,
2013-11-25 00:15:00,67.3,59.5,30.09,ENE,68,1.6,3.1,76,0.00,,CLR,0.00,VWS V14.01,2013-11-25 05:15:00,
2013-11-25 00:17:00,67.3,59.5,30.09,ENE,68,1.6,3.1,76,0.00,,SCT035,0.00,VWS V14.01,2013-11-25 05:17:00,
2013-11-25 00:30:00,67.0,59.6,30.08,North,0,0.9,2.9,77,0.00,,CLR,0.00,VWS V14.01,2013-11-25 05:30:00,
2013-11-25 00:33:00,67.0,59.6,30.08,North,0,0.9,2.9,77,0.00,,SCT035,0.00,VWS V14.01,2013-11-25 05:33:00,
2013-11-25 00:45:00,67.0,59.6,30.08,ENE,68,3.1,3.1,77,0.00,,CLR,0.00,VWS V14.01,2013-11-25 05:45:00,
2013-11-25 00:48:00,67.0,59.6,30.08,ENE,68,3.1,3.1,77,0.00,,SCT035,0.00,VWS V14.01,2013-11-25 05:48:00,
2013-11-25 01:00:00,67.0,59.6,30.08,East,90,1.8,4.5,77,0.00,,CLR,0.00,VWS V14.01,2013-11-25 06:00:00,
2013-11-25 01:02:00,67.0,59.6,30.08,East,90,1.8,4.5,77,0.00,,SCT035,0.00,VWS V14.01,2013-11-25 06:02:00,
2013-11-25 01:15:00,67.0,59.6,30.08,North,0,2.5,4.3,77,0.00,,CLR,0.00,VWS V14.01,2013-11-25 06:15:00,
2013-11-25 01:17:00,67.0,59.6,30.08,North,0,2.5,4.3,77,0.00,,OVC033,0.00,VWS V14.01,2013-11-25 06:17:00,
2013-11-25 01:30:00,67.0,59.6,30.07,ENE,68,1.8,6.0,77,0.00,,CLR,0.00,VWS V14.01,2013-11-25 06:30:00,
2013-11-25 01:33:00,67.0,59.6,30.07,ENE,68,1.8,6.0,77,0.00,,OVC033,0.00,VWS V14.01,2013-11-25 06:33:00,
2013-11-25 01:45:00,66.8,59.7,30.07,NE,45,2.9,3.8,78,0.00,,CLR,0.00,VWS V14.01,2013-11-25 06:45:00,
2013-11-25 01:48:00,66.8,59.7,30.07,NE,45,2.9,3.8,78,0.00,,OVC033,0.00,VWS V14.01,2013-11-25 06:48:00,
2013-11-25 02:00:00,67.1,59.7,30.07,ESE,112,1.8,3.1,77,0.00,,CLR,0.00,VWS V14.01,2013-11-25 07:00:00,
2013-11-25 02:02:00,67.1,59.7,30.07,ESE,112,1.8,3.1,77,0.00,,OVC033,0.00,VWS V14.01,2013-11-25 07:02:00,
2013-11-25 02:15:00,67.3,59.8,30.07,ENE,68,3.4,3.4,77,0.00,,CLR,0.00,VWS V14.01,2013-11-25 07:15:00,
2013-11-25 02:17:00,67.3,59.8,30.07,ENE,68,3.4,3.4,77,0.00,,SCT033,0.00,VWS V14.01,2013-11-25 07:17:00,
2013-11-25 02:30:00,67.3,59.5,30.07,North,0,1.3,3.4,76,0.00,,CLR,0.00,VWS V14.01,2013-11-25 07:30:00,
2013-11-25 02:33:00,67.3,59.5,30.07,North,0,1.3,3.4,76,0.00,,SCT033,0.00,VWS V14.01,2013-11-25 07:33:00,
2013-11-25 02:45:00,67.3,59.5,30.06,NNE,22,2.9,3.1,76,0.00,,CLR,0.00,VWS V14.01,2013-11-25 07:45:00,
2013-11-25 02:48:00,67.3,59.5,30.06,NNE,22,2.9,3.1,76,0.00,,SCT033,0.00,VWS V14.01,2013-11-25 07:48:00,
2013-11-25 03:00:00,67.5,59.3,30.06,East,90,2.5,2.9,75,0.00,,CLR,0.00,VWS V14.01,2013-11-25 08:00:00,
2013-11-25 03:02:00,67.5,59.3,30.06,East,90,2.5,2.9,75,0.00,,SCT033,0.00,VWS V14.01,2013-11-25 08:02:00,
2013-11-25 03:15:00,67.5,59.3,30.06,North,0,2.5,3.8,75,0.00,,CLR,0.00,VWS V14.01,2013-11-25 08:15:00,
2013-11-25 03:17:00,67.5,59.3,30.06,North,0,2.5,3.8,75,0.00,,OVC037,0.00,VWS V14.01,2013-11-25 08:17:00,
2013-11-25 03:30:00,67.5,58.9,30.07,NE,45,1.8,3.6,74,0.00,,CLR,0.00,VWS V14.01,2013-11-25 08:30:00,
2013-11-25 03:32:00,67.5,58.9,30.07,NE,45,1.8,3.6,74,0.00,,OVC037,0.00,VWS V14.01,2013-11-25 08:32:00,
2013-11-25 03:45:00,67.5,58.9,30.06,NE,45,0.7,3.1,74,0.00,,CLR,0.00,VWS V14.01,2013-11-25 08:45:00,
2013-11-25 03:48:00,67.5,58.9,30.06,NE,45,0.7,3.1,74,0.00,,OVC037,0.00,VWS V14.01,2013-11-25 08:48:00,
2013-11-25 04:00:00,67.5,58.9,30.05,ENE,68,2.5,2.9,74,0.00,,CLR,0.00,VWS V14.01,2013-11-25 09:00:00,
2013-11-25 04:02:00,67.5,58.9,30.05,ENE,68,2.5,2.9,74,0.00,,CLR,0.00,VWS V14.01,2013-11-25 09:02:00,
2013-11-25 04:15:00,67.3,58.7,30.05,ESE,112,1.3,2.7,74,0.00,,CLR,0.00,VWS V14.01,2013-11-25 09:15:00,
2013-11-25 04:17:00,67.3,58.7,30.05,ESE,112,1.3,2.7,74,0.00,,CLR,0.00,VWS V14.01,2013-11-25 09:17:00,
2013-11-25 04:30:00,67.3,58.7,30.04,ENE,68,1.8,3.4,74,0.00,,CLR,0.00,VWS V14.01,2013-11-25 09:30:00,
2013-11-25 04:32:00,67.3,58.7,30.04,ENE,68,1.8,3.4,74,0.00,,CLR,0.00,VWS V14.01,2013-11-25 09:32:00,
2013-11-25 04:45:00,67.1,58.5,30.05,ENE,68,0.9,4.3,74,0.00,,CLR,0.00,VWS V14.01,2013-11-25 09:45:00,
2013-11-25 04:48:00,67.1,58.5,30.05,ENE,68,0.9,4.3,74,0.00,,CLR,0.00,VWS V14.01,2013-11-25 09:48:00,
2013-11-25 05:15:00,68.9,59.5,30.05,North,0,0.7,3.1,72,0.00,,CLR,0.00,VWS V14.01,2013-11-25 10:15:00,
2013-11-25 05:17:00,68.9,59.5,30.05,North,0,0.7,3.1,72,0.00,,CLR,0.00,VWS V14.01,2013-11-25 10:17:00,
2013-11-25 05:30:00,69.5,60.1,30.05,ENE,68,1.8,3.4,72,0.00,,CLR,0.00,VWS V14.01,2013-11-25 10:30:00,
2013-11-25 05:32:00,69.5,60.1,30.05,ENE,68,1.8,3.4,72,0.00,,CLR,0.00,VWS V14.01,2013-11-25 10:32:00,
2013-11-25 05:45:00,69.7,59.9,30.05,East,90,1.6,3.1,71,0.00,,CLR,0.00,VWS V14.01,2013-11-25 10:45:00,
2013-11-25 05:48:00,69.7,59.9,30.05,East,90,1.6,3.1,71,0.00,,CLR,0.00,VWS V14.01,2013-11-25 10:48:00,
2013-11-25 06:00:00,69.7,59.9,30.05,NE,45,1.1,1.8,71,0.00,,CLR,0.00,VWS V14.01,2013-11-25 11:00:00,
2013-11-25 06:02:00,69.7,59.9,30.05,NE,45,1.1,1.8,71,0.00,,CLR,0.00,VWS V14.01,2013-11-25 11:02:00,
2013-11-25 06:15:00,68.6,59.2,30.05,ENE,68,1.1,2.5,72,0.00,,CLR,0.00,VWS V14.01,2013-11-25 11:15:00,
2013-11-25 06:17:00,68.6,59.2,30.05,ENE,68,1.1,2.5,72,0.00,,CLR,0.00,VWS V14.01,2013-11-25 11:17:00,
2013-11-25 06:30:00,67.7,58.7,30.05,North,0,1.8,1.8,73,0.00,,CLR,0.00,VWS V14.01,2013-11-25 11:30:00,
2013-11-25 06:32:00,67.7,58.7,30.05,North,0,1.8,1.8,73,0.00,,CLR,0.00,VWS V14.01,2013-11-25 11:32:00,
2013-11-25 06:45:00,67.5,58.9,30.06,NE,45,0.7,2.0,74,0.00,,CLR,0.00,VWS V14.01,2013-11-25 11:45:00,
2013-11-25 06:47:00,67.5,58.9,30.06,NE,45,0.7,2.0,74,0.00,,CLR,0.00,VWS V14.01,2013-11-25 11:47:00,
2013-11-25 07:00:00,67.3,58.7,30.07,NE,45,1.8,1.8,74,0.00,,CLR,0.00,VWS V14.01,2013-11-25 12:00:00,
2013-11-25 07:02:00,67.3,58.7,30.07,NE,45,1.8,1.8,74,0.00,,CLR,0.00,VWS V14.01,2013-11-25 12:02:00,
2013-11-25 07:15:00,67.3,58.7,30.07,NE,45,0.4,1.8,74,0.00,,CLR,0.00,VWS V14.01,2013-11-25 12:15:00,
2013-11-25 07:17:00,67.3,58.7,30.07,NE,45,0.4,1.8,74,0.00,,CLR,0.00,VWS V14.01,2013-11-25 12:17:00,
2013-11-25 07:30:00,67.1,58.9,30.07,ENE,68,0.7,1.6,75,0.00,,CLR,0.00,VWS V14.01,2013-11-25 12:30:00,
2013-11-25 07:32:00,67.1,58.9,30.07,ENE,68,0.7,1.6,75,0.00,,CLR,0.00,VWS V14.01,2013-11-25 12:32:00,
2013-11-25 07:45:00,67.1,58.9,30.08,ENE,68,0.9,1.3,75,0.00,,CLR,0.00,VWS V14.01,2013-11-25 12:45:00,
2013-11-25 07:47:00,67.1,58.9,30.08,ENE,68,0.9,1.3,75,0.00,,CLR,0.00,VWS V14.01,2013-11-25 12:47:00,
2013-11-25 08:00:00,67.3,59.1,30.09,NNE,22,0.4,2.5,75,0.00,,CLR,0.00,VWS V14.01,2013-11-25 13:00:00,
2013-11-25 08:02:00,67.3,59.1,30.09,NNE,22,0.4,2.5,75,0.00,,CLR,0.00,VWS V14.01,2013-11-25 13:02:00,
2013-11-25 08:15:00,67.9,59.7,30.08,ESE,112,0.9,2.0,75,0.00,,CLR,0.00,VWS V14.01,2013-11-25 13:15:00,
2013-11-25 08:17:00,67.9,59.7,30.08,ESE,112,0.9,2.0,75,0.00,,CLR,0.00,VWS V14.01,2013-11-25 13:17:00,
2013-11-25 08:30:00,68.2,60.0,30.10,North,0,1.1,2.9,75,0.00,,CLR,0.00,VWS V14.01,2013-11-25 13:30:00,
2013-11-25 08:32:00,68.2,60.0,30.10,North,0,1.1,2.9,75,0.00,,CLR,0.00,VWS V14.01,2013-11-25 13:32:00,
2013-11-25 08:45:00,68.8,60.2,30.10,North,0,1.3,4.3,74,0.00,,CLR,0.00,VWS V14.01,2013-11-25 13:45:00,
2013-11-25 08:48:00,68.8,60.2,30.10,North,0,1.3,4.3,74,0.00,,CLR,0.00,VWS V14.01,2013-11-25 13:48:00,
2013-11-25 09:00:00,69.1,60.5,30.10,ENE,68,3.4,3.4,74,0.00,,CLR,0.00,VWS V14.01,2013-11-25 14:00:00,
2013-11-25 09:02:00,69.1,60.5,30.10,ENE,68,3.4,3.4,74,0.00,,CLR,0.00,VWS V14.01,2013-11-25 14:02:00,
2013-11-25 09:15:00,69.8,61.2,30.11,East,90,2.9,4.5,74,0.00,,CLR,0.00,VWS V14.01,2013-11-25 14:15:00,
2013-11-25 09:17:00,69.8,61.2,30.11,East,90,2.9,4.5,74,0.00,,CLR,0.00,VWS V14.01,2013-11-25 14:17:00,
2013-11-25 09:30:00,71.3,62.2,30.10,ENE,68,3.4,6.7,73,0.00,,CLR,0.00,VWS V14.01,2013-11-25 14:30:00,
2013-11-25 09:33:00,71.3,62.2,30.10,ENE,68,3.4,6.7,73,0.00,,CLR,0.00,VWS V14.01,2013-11-25 14:33:00,
2013-11-25 09:45:00,72.7,63.2,30.11,East,90,2.5,3.4,72,0.00,,CLR,0.00,VWS V14.01,2013-11-25 14:45:00,
2013-11-25 09:48:00,72.7,63.2,30.11,East,90,2.5,3.4,72,0.00,,CLR,0.00,VWS V14.01,2013-11-25 14:48:00,
2013-11-25 10:00:00,74.2,63.0,30.11,East,90,2.7,8.5,68,0.00,,CLR,0.00,VWS V14.01,2013-11-25 15:00:00,
2013-11-25 10:02:00,74.2,63.0,30.11,East,90,2.7,8.5,68,0.00,,FEW038,0.00,VWS V14.01,2013-11-25 15:02:00,
2013-11-25 10:15:00,75.1,63.0,30.11,North,0,3.1,5.6,66,0.00,,CLR,0.00,VWS V14.01,2013-11-25 15:15:00,
2013-11-25 10:17:00,75.1,63.0,30.11,North,0,3.1,5.6,66,0.00,,FEW038,0.00,VWS V14.01,2013-11-25 15:17:00,
2013-11-25 10:30:00,75.8,62.3,30.11,ENE,68,3.8,9.8,63,0.00,,CLR,0.00,VWS V14.01,2013-11-25 15:30:00,
2013-11-25 10:33:00,75.8,62.3,30.11,ENE,68,3.8,9.8,63,0.00,,FEW038,0.00,VWS V14.01,2013-11-25 15:33:00,
2013-11-25 10:45:00,76.9,62.4,30.11,SSE,158,3.6,9.8,61,0.00,,CLR,0.00,VWS V14.01,2013-11-25 15:45:00,
2013-11-25 10:48:00,76.9,62.4,30.11,SSE,158,3.6,9.8,61,0.00,,FEW038,0.00,VWS V14.01,2013-11-25 15:48:00,
2013-11-25 11:00:00,77.4,61.5,30.10,NW,315,5.1,6.9,58,0.00,,CLR,0.00,VWS V14.01,2013-11-25 16:00:00,
2013-11-25 11:02:00,77.4,61.5,30.10,NW,315,5.1,6.9,58,0.00,,FEW039,0.00,VWS V14.01,2013-11-25 16:02:00,
2013-11-25 11:15:00,77.9,61.5,30.10,ESE,112,4.7,12.8,57,0.00,,CLR,0.00,VWS V14.01,2013-11-25 16:15:00,
2013-11-25 11:17:00,77.9,61.5,30.10,ESE,112,4.7,12.8,57,0.00,,FEW039,0.00,VWS V14.01,2013-11-25 16:17:00,
2013-11-25 11:30:00,78.1,61.6,30.09,East,90,3.6,10.7,57,0.00,,CLR,0.00,VWS V14.01,2013-11-25 16:30:00,
2013-11-25 11:33:00,78.1,61.6,30.09,East,90,3.6,10.7,57,0.00,,FEW039,0.00,VWS V14.01,2013-11-25 16:33:00,
2013-11-25 11:45:00,78.7,62.7,30.08,East,90,2.5,11.2,58,0.00,,CLR,0.00,VWS V14.01,2013-11-25 16:45:00,
2013-11-25 11:48:00,78.7,62.7,30.08,East,90,2.5,11.2,58,0.00,,FEW039,0.00,VWS V14.01,2013-11-25 16:48:00,
2013-11-25 12:00:00,79.0,62.5,30.08,North,0,2.5,6.7,57,0.00,,CLR,0.00,VWS V14.01,2013-11-25 17:00:00,
2013-11-25 12:02:00,79.0,62.5,30.08,North,0,2.5,6.7,57,0.00,,BKN040,0.00,VWS V14.01,2013-11-25 17:02:00,
2013-11-25 12:15:00,78.5,62.5,30.07,ENE,68,3.8,8.9,58,0.00,,CLR,0.00,VWS V14.01,2013-11-25 17:15:00,
2013-11-25 12:17:00,78.5,62.5,30.07,ENE,68,3.8,8.9,58,0.00,,BKN040,0.00,VWS V14.01,2013-11-25 17:17:00,
2013-11-25 12:30:00,79.2,63.2,30.07,ESE,112,3.4,9.4,58,0.00,,CLR,0.00,VWS V14.01,2013-11-25 17:30:00,
2013-11-25 12:33:00,79.2,63.2,30.07,ESE,112,3.4,9.4,58,0.00,,BKN040,0.00,VWS V14.01,2013-11-25 17:33:00,
2013-11-25 12:45:00,79.6,63.5,30.06,South,180,2.0,5.4,58,0.00,,CLR,0.00,VWS V14.01,2013-11-25 17:45:00,
2013-11-25 12:48:00,79.6,63.5,30.06,South,180,2.0,5.4,58,0.00,,BKN040,0.00,VWS V14.01,2013-11-25 17:48:00,
2013-11-25 13:00:00,79.6,63.5,30.04,East,90,5.4,6.9,58,0.00,,CLR,0.00,VWS V14.01,2013-11-25 18:00:00,
2013-11-25 13:02:00,79.6,63.5,30.04,East,90,5.4,6.9,58,0.00,,BKN040,0.00,VWS V14.01,2013-11-25 18:02:00,
2013-11-25 13:30:00,79.9,63.8,30.03,ENE,68,2.9,9.6,58,0.00,,CLR,0.00,VWS V14.01,2013-11-25 18:30:00,
2013-11-25 13:33:00,79.9,63.8,30.03,ENE,68,2.9,9.6,58,0.00,,SCT039,0.00,VWS V14.01,2013-11-25 18:33:00,
2013-11-25 13:45:00,79.4,63.3,30.02,ENE,68,2.0,8.7,58,0.00,,CLR,0.00,VWS V14.01,2013-11-25 18:45:00,
2013-11-25 13:48:00,79.4,63.3,30.02,ENE,68,2.0,8.7,58,0.00,,SCT039,0.00,VWS V14.01,2013-11-25 18:48:00,
2013-11-25 14:00:00,79.4,63.3,30.02,East,90,4.9,8.7,58,0.00,,CLR,0.00,VWS V14.01,2013-11-25 19:00:00,
2013-11-25 14:02:00,79.4,63.3,30.02,East,90,4.9,8.7,58,0.00,,BKN044,0.00,VWS V14.01,2013-11-25 19:02:00,
2013-11-25 14:15:00,79.9,64.3,30.03,ENE,68,1.8,8.3,59,0.00,,CLR,0.00,VWS V14.01,2013-11-25 19:15:00,
2013-11-25 14:17:00,79.9,64.3,30.03,ENE,68,1.8,8.3,59,0.00,,BKN044,0.00,VWS V14.01,2013-11-25 19:17:00,
2013-11-25 14:45:00,80.1,64.0,30.02,SE,135,4.7,10.7,58,0.00,,CLR,0.00,VWS V14.01,2013-11-25 19:45:00,
2013-11-25 14:48:00,80.1,64.0,30.02,SE,135,4.7,10.7,58,0.00,,BKN044,0.00,VWS V14.01,2013-11-25 19:48:00,
2013-11-25 15:00:00,79.7,63.1,30.02,NE,45,3.4,7.6,57,0.00,,CLR,0.00,VWS V14.01,2013-11-25 20:00:00,
2013-11-25 15:02:00,79.7,63.1,30.02,NE,45,3.4,7.6,57,0.00,,BKN044,0.00,VWS V14.01,2013-11-25 20:02:00,
2013-11-25 15:15:00,79.2,63.2,30.03,East,90,1.6,5.4,58,0.00,,CLR,0.00,VWS V14.01,2013-11-25 20:15:00,
2013-11-25 15:17:00,79.2,63.2,30.03,East,90,1.6,5.4,58,0.00,,FEW038,0.00,VWS V14.01,2013-11-25 20:17:00,
2013-11-25 15:30:00,78.8,63.3,30.03,ENE,68,2.0,6.7,59,0.00,,CLR,0.00,VWS V14.01,2013-11-25 20:30:00,
2013-11-25 15:32:00,78.8,63.3,30.03,ENE,68,2.0,6.7,59,0.00,,FEW038,0.00,VWS V14.01,2013-11-25 20:32:00,
2013-11-25 15:45:00,78.1,63.1,30.02,East,90,2.5,4.7,60,0.00,,CLR,0.00,VWS V14.01,2013-11-25 20:45:00,
2013-11-25 15:48:00,78.1,63.1,30.02,East,90,2.5,4.7,60,0.00,,FEW038,0.00,VWS V14.01,2013-11-25 20:48:00,
2013-11-25 16:00:00,77.9,62.9,30.02,ENE,68,4.0,7.6,60,0.00,,CLR,0.00,VWS V14.01,2013-11-25 21:00:00,
2013-11-25 16:02:00,77.9,62.9,30.02,ENE,68,4.0,7.6,60,0.00,,BKN055,0.00,VWS V14.01,2013-11-25 21:02:00,
2013-11-25 16:15:00,77.4,62.9,30.01,NNE,22,2.0,4.7,61,0.00,,CLR,0.00,VWS V14.01,2013-11-25 21:15:00,
2013-11-25 16:17:00,77.4,62.9,30.01,NNE,22,2.0,4.7,61,0.00,,BKN055,0.00,VWS V14.01,2013-11-25 21:17:00,
2013-11-25 16:30:00,77.0,62.5,30.00,SSE,158,3.8,4.3,61,0.00,,CLR,0.00,VWS V14.01,2013-11-25 21:30:00,
2013-11-25 16:32:00,77.0,62.5,30.00,SSE,158,3.8,4.3,61,0.00,,BKN055,0.00,VWS V14.01,2013-11-25 21:32:00,
2013-11-25 16:45:00,76.7,62.7,30.00,NE,45,1.1,7.2,62,0.00,,CLR,0.00,VWS V14.01,2013-11-25 21:45:00,
2013-11-25 16:48:00,76.7,62.7,30.00,NE,45,1.1,7.2,62,0.00,,BKN055,0.00,VWS V14.01,2013-11-25 21:48:00,
2013-11-25 17:00:00,76.3,63.2,30.00,ENE,68,4.3,5.4,64,0.00,,CLR,0.00,VWS V14.01,2013-11-25 22:00:00,
2013-11-25 17:02:00,76.3,63.2,30.00,ENE,68,4.3,5.4,64,0.00,,CLR,0.00,VWS V14.01,2013-11-25 22:02:00,
2013-11-25 17:15:00,75.8,63.2,30.00,ESE,112,3.4,8.3,65,0.00,,CLR,0.00,VWS V14.01,2013-11-25 22:15:00,
2013-11-25 17:17:00,75.8,63.2,30.00,ESE,112,3.4,8.3,65,0.00,,CLR,0.00,VWS V14.01,2013-11-25 22:17:00,
2013-11-25 17:30:00,75.4,62.8,30.02,SE,135,1.8,6.3,65,0.00,,CLR,0.00,VWS V14.01,2013-11-25 22:30:00,
2013-11-25 17:32:00,75.4,62.8,30.02,SE,135,1.8,6.3,65,0.00,,CLR,0.00,VWS V14.01,2013-11-25 22:32:00,
2013-11-25 17:45:00,75.1,63.0,30.02,ENE,68,3.8,4.7,66,0.00,,CLR,0.00,VWS V14.01,2013-11-25 22:45:00,
2013-11-25 17:47:00,75.1,63.0,30.02,ENE,68,3.8,4.7,66,0.00,,CLR,0.00,VWS V14.01,2013-11-25 22:47:00,
2013-11-25 18:00:00,75.1,63.0,30.02,NE,45,0.9,4.0,66,0.00,,CLR,0.00,VWS V14.01,2013-11-25 23:00:00,
2013-11-25 18:02:00,75.1,63.0,30.02,NE,45,0.9,4.0,66,0.00,,CLR,0.00,VWS V14.01,2013-11-25 23:02:00,
2013-11-25 18:15:00,75.2,63.1,30.03,NE,45,1.1,2.9,66,0.00,,CLR,0.00,VWS V14.01,2013-11-25 23:15:00,
2013-11-25 18:17:00,75.2,63.1,30.03,NE,45,1.1,2.9,66,0.00,,CLR,0.00,VWS V14.01,2013-11-25 23:17:00,
2013-11-25 18:30:00,74.9,63.2,30.03,NE,45,2.5,2.5,67,0.00,,CLR,0.00,VWS V14.01,2013-11-25 23:30:00,
2013-11-25 18:32:00,74.9,63.2,30.03,NE,45,2.5,2.5,67,0.00,,CLR,0.00,VWS V14.01,2013-11-25 23:32:00,
2013-11-25 18:45:00,74.2,63.0,30.03,North,0,1.6,2.5,68,0.00,,CLR,0.00,VWS V14.01,2013-11-25 23:45:00,
2013-11-25 18:47:00,74.2,63.0,30.03,North,0,1.6,2.5,68,0.00,,CLR,0.00,VWS V14.01,2013-11-25 23:47:00,
2013-11-25 19:00:00,73.4,62.6,30.04,NNE,22,2.5,2.5,69,0.00,,CLR,0.00,VWS V14.01,2013-11-26 00:00:00,
2013-11-25 19:02:00,73.4,62.6,30.04,NNE,22,2.5,2.5,69,0.00,,CLR,0.00,VWS V14.01,2013-11-26 00:02:00,
2013-11-25 19:15:00,72.9,63.0,30.04,ENE,68,1.8,4.7,71,0.00,,CLR,0.00,VWS V14.01,2013-11-26 00:15:00,
2013-11-25 19:17:00,72.9,63.0,30.04,ENE,68,1.8,4.7,71,0.00,,CLR,0.00,VWS V14.01,2013-11-26 00:17:00,
2013-11-25 19:30:00,72.7,62.8,30.03,North,0,1.3,2.7,71,0.00,,CLR,0.00,VWS V14.01,2013-11-26 00:30:00,
2013-11-25 19:32:00,72.7,62.8,30.03,North,0,1.3,2.7,71,0.00,,CLR,0.00,VWS V14.01,2013-11-26 00:32:00,
2013-11-25 19:45:00,72.4,62.9,30.03,NE,45,1.3,2.5,72,0.00,,CLR,0.00,VWS V14.01,2013-11-26 00:45:00,
2013-11-25 19:47:00,72.4,62.9,30.03,NE,45,1.3,2.5,72,0.00,,CLR,0.00,VWS V14.01,2013-11-26 00:47:00,
2013-11-25 20:00:00,72.0,62.9,30.03,ENE,68,1.1,2.5,73,0.00,,CLR,0.00,VWS V14.01,2013-11-26 01:00:00,
2013-11-25 20:02:00,72.0,62.9,30.03,ENE,68,1.1,2.5,73,0.00,,CLR,0.00,VWS V14.01,2013-11-26 01:02:00,
2013-11-25 20:15:00,71.8,62.7,30.03,NNE,22,1.8,4.3,73,0.00,,CLR,0.00,VWS V14.01,2013-11-26 01:15:00,
2013-11-25 20:17:00,71.8,62.7,30.03,NNE,22,1.8,4.3,73,0.00,,CLR,0.00,VWS V14.01,2013-11-26 01:17:00,
2013-11-25 20:30:00,71.6,62.9,30.02,North,0,1.8,4.9,74,0.00,,CLR,0.00,VWS V14.01,2013-11-26 01:30:00,
2013-11-25 20:32:00,71.6,62.9,30.02,North,0,1.8,4.9,74,0.00,,CLR,0.00,VWS V14.01,2013-11-26 01:32:00,
2013-11-25 20:45:00,71.3,62.6,30.02,NNE,22,2.5,2.7,74,0.00,,CLR,0.00,VWS V14.01,2013-11-26 01:45:00,
2013-11-25 20:47:00,71.3,62.6,30.02,NNE,22,2.5,2.7,74,0.00,,CLR,0.00,VWS V14.01,2013-11-26 01:47:00,
2013-11-25 21:00:00,71.3,63.0,30.01,East,90,0.9,4.0,75,0.00,,CLR,0.00,VWS V14.01,2013-11-26 02:00:00,
2013-11-25 21:02:00,71.3,63.0,30.01,East,90,0.9,4.0,75,0.00,,CLR,0.00,VWS V14.01,2013-11-26 02:02:00,
2013-11-25 21:15:00,70.9,62.6,30.02,North,0,2.7,3.1,75,0.00,,CLR,0.00,VWS V14.01,2013-11-26 02:15:00,
2013-11-25 21:17:00,70.9,62.6,30.02,North,0,2.7,3.1,75,0.00,,CLR,0.00,VWS V14.01,2013-11-26 02:17:00,
2013-11-25 21:30:00,70.9,63.0,30.02,ENE,68,1.1,5.4,76,0.00,,CLR,0.00,VWS V14.01,2013-11-26 02:30:00,
2013-11-25 21:33:00,70.9,63.0,30.02,ENE,68,1.1,5.4,76,0.00,,CLR,0.00,VWS V14.01,2013-11-26 02:33:00,
2013-11-25 21:45:00,70.9,63.3,30.01,ESE,112,3.8,4.5,77,0.00,,CLR,0.00,VWS V14.01,2013-11-26 02:45:00,
2013-11-25 21:48:00,70.9,63.3,30.01,ESE,112,3.8,4.5,77,0.00,,CLR,0.00,VWS V14.01,2013-11-26 02:48:00,
2013-11-25 22:00:00,70.9,63.3,30.01,SE,135,3.4,3.8,77,0.00,,CLR,0.00,VWS V14.01,2013-11-26 03:00:00,
2013-11-25 22:02:00,70.9,63.3,30.01,SE,135,3.4,3.8,77,0.00,,CLR,0.00,VWS V14.01,2013-11-26 03:02:00,
2013-11-25 22:15:00,70.7,63.1,30.00,East,90,0.9,4.0,77,0.00,,CLR,0.00,VWS V14.01,2013-11-26 03:15:00,
2013-11-25 22:17:00,70.7,63.1,30.00,East,90,0.9,4.0,77,0.00,,CLR,0.00,VWS V14.01,2013-11-26 03:17:00,
2013-11-25 22:30:00,70.6,63.4,30.00,SE,135,3.1,6.7,78,0.00,,CLR,0.00,VWS V14.01,2013-11-26 03:30:00,
2013-11-25 22:33:00,70.6,63.4,30.00,SE,135,3.1,6.7,78,0.00,,CLR,0.00,VWS V14.01,2013-11-26 03:33:00,
2013-11-25 22:45:00,70.7,63.9,30.00,East,90,4.3,5.4,79,0.00,,CLR,0.00,VWS V14.01,2013-11-26 03:45:00,
2013-11-25 22:48:00,70.7,63.9,30.00,East,90,4.3,5.4,79,0.00,,CLR,0.00,VWS V14.01,2013-11-26 03:48:00,
2013-11-25 23:00:00,70.6,63.4,29.99,SE,135,3.8,5.1,78,0.00,,CLR,0.00,VWS V14.01,2013-11-26 04:00:00,
2013-11-25 23:02:00,70.6,63.4,29.99,SE,135,3.8,5.1,78,0.00,,CLR,0.00,VWS V14.01,2013-11-26 04:02:00,
2013-11-25 23:15:00,70.6,63.8,29.98,ENE,68,2.5,4.3,79,0.00,,CLR,0.00,VWS V14.01,2013-11-26 04:15:00,
2013-11-25 23:17:00,70.6,63.8,29.98,ENE,68,2.5,4.3,79,0.00,,CLR,0.00,VWS V14.01,2013-11-26 04:17:00,
2013-11-25 23:30:00,70.6,63.8,29.97,SE,135,3.1,5.4,79,0.00,,CLR,0.00,VWS V14.01,2013-11-26 04:30:00,
2013-11-25 23:33:00,70.6,63.8,29.97,SE,135,3.1,5.4,79,0.00,,CLR,0.00,VWS V14.01,2013-11-26 04:33:00,
2013-11-25 23:45:00,70.7,63.9,29.97,NE,45,1.3,4.5,79,0.00,,CLR,0.00,VWS V14.01,2013-11-26 04:45:00,
2013-11-25 23:48:00,70.7,63.9,29.97,NE,45,1.3,4.5,79,0.00,,CLR,0.00,VWS V14.01,2013-11-26 04:48:00,